Time;durP1;ratioP1;P1;durP2;ratioP2;P2;SDS_P1;SDS_P2;PMS_P1;PMS_P2;Temp;Humidity;BMP_temperature;BMP_pressure;BME280_temperature;BME280_humidity;BME280_pressure;Samples;Min_cycle;Max_cycle;Signal;HPM_P1;HPM_P2
2023/02/20 00:00:36;;;;;;;20.52;18.60;;;6.10;99.90;;;;;;4189931;28;20419;-88
2023/02/20 00:02:56;;;;;;;26.50;23.63;;;6.00;99.90;;;;;;4189383;28;20111;-87
2023/02/20 00:05:17;;;;;;;16.30;14.95;;;5.80;99.90;;;;;;4184556;28;20295;-87
2023/02/20 00:07:37;;;;;;;15.95;14.50;;;5.80;99.90;;;;;;4195104;28;20284;-87
2023/02/20 00:09:57;;;;;;;11.23;10.63;;;5.80;99.90;;;;;;4176692;28;20080;-87
2023/02/20 00:12:21;;;;;;;12.18;11.52;;;5.80;99.90;;;;;;4193595;28;20048;-87
2023/02/20 00:14:41;;;;;;;12.20;11.63;;;5.90;99.90;;;;;;4202802;28;20100;-87
2023/02/20 00:17:02;;;;;;;13.13;11.85;;;5.90;99.90;;;;;;4179551;28;20286;-87
2023/02/20 00:19:21;;;;;;;13.05;12.27;;;5.80;99.90;;;;;;4188032;28;20109;-87
2023/02/20 00:21:49;;;;;;;22.08;16.15;;;5.80;99.90;;;;;;4192410;28;20063;-87
2023/02/20 00:24:08;;;;;;;18.60;16.65;;;5.80;99.90;;;;;;4176559;28;20087;-88
2023/02/20 00:26:29;;;;;;;16.75;14.98;;;5.50;99.90;;;;;;4187623;28;20248;-87
2023/02/20 00:28:49;;;;;;;14.88;13.48;;;5.50;99.90;;;;;;4190938;28;20250;-87
2023/02/20 00:31:17;;;;;;;16.08;14.73;;;5.60;99.90;;;;;;4191630;28;20358;-87
2023/02/20 00:33:37;;;;;;;16.88;15.65;;;5.60;99.90;;;;;;4194072;28;20159;-87
2023/02/20 00:35:58;;;;;;;16.92;15.30;;;5.50;99.90;;;;;;4189091;28;20055;-87
2023/02/20 00:38:18;;;;;;;18.42;16.58;;;5.60;99.90;;;;;;4185908;28;20366;-87
2023/02/20 00:40:38;;;;;;;19.17;17.45;;;5.60;99.90;;;;;;4189314;28;20068;-88
2023/02/20 00:42:58;;;;;;;20.65;18.92;;;5.70;99.90;;;;;;4191957;28;20121;-87
2023/02/20 00:45:18;;;;;;;20.50;18.25;;;5.60;99.90;;;;;;4190589;28;20064;-87
2023/02/20 00:47:38;;;;;;;18.70;16.95;;;5.70;99.90;;;;;;4187631;28;20394;-87
2023/02/20 00:49:58;;;;;;;17.02;15.63;;;5.60;99.90;;;;;;4187514;28;20060;-87
2023/02/20 00:52:19;;;;;;;15.93;14.68;;;5.70;99.90;;;;;;4177091;28;20064;-88
2023/02/20 00:54:39;;;;;;;16.58;15.55;;;5.70;99.90;;;;;;4174579;28;20411;-88
2023/02/20 00:56:59;;;;;;;14.82;13.57;;;5.70;99.90;;;;;;4180193;28;20556;-87
2023/02/20 00:59:19;;;;;;;16.63;15.25;;;5.80;99.90;;;;;;4188735;28;20401;-87
2023/02/20 01:01:40;;;;;;;28.98;21.17;;;5.80;99.90;;;;;;4188156;28;20087;-87
2023/02/20 01:04:00;;;;;;;28.65;20.20;;;5.70;99.90;;;;;;4178276;28;20299;-87
2023/02/20 01:06:21;;;;;;;18.55;16.48;;;5.80;99.90;;;;;;4187119;28;20133;-87
2023/02/20 01:08:41;;;;;;;16.02;14.65;;;5.80;99.90;;;;;;4186811;28;20400;-87
2023/02/20 01:11:01;;;;;;;18.50;15.50;;;5.70;99.90;;;;;;4178261;28;20055;-87
2023/02/20 01:13:21;;;;;;;18.02;15.98;;;5.70;99.90;;;;;;4189281;28;20075;-87
2023/02/20 01:15:41;;;;;;;17.33;15.93;;;5.70;99.90;;;;;;4196603;28;20048;-87
2023/02/20 01:18:01;;;;;;;16.98;15.23;;;5.70;99.90;;;;;;4187403;28;20393;-87
2023/02/20 01:20:22;;;;;;;17.85;16.33;;;5.70;99.90;;;;;;4191974;28;20133;-87
2023/02/20 01:22:41;;;;;;;17.85;16.20;;;5.70;99.90;;;;;;4195306;28;20048;-87
2023/02/20 01:25:02;;;;;;;16.50;15.23;;;5.70;99.90;;;;;;4197797;28;20047;-87
2023/02/20 01:27:22;;;;;;;16.52;14.80;;;5.70;99.90;;;;;;4193212;28;20082;-87
2023/02/20 01:29:42;;;;;;;15.52;14.20;;;5.60;99.90;;;;;;4198143;28;20047;-87
2023/02/20 01:32:02;;;;;;;16.48;14.98;;;5.60;99.90;;;;;;4185413;28;20115;-87
2023/02/20 01:34:22;;;;;;;17.17;15.57;;;5.60;99.90;;;;;;4184743;28;20052;-87
2023/02/20 01:36:50;;;;;;;16.77;15.18;;;5.60;99.90;;;;;;4181755;28;20054;-87
2023/02/20 01:39:10;;;;;;;16.45;15.07;;;5.50;99.90;;;;;;4180120;28;20152;-87
2023/02/20 01:41:32;;;;;;;19.83;16.92;;;5.50;99.90;;;;;;4184018;28;20048;-87
2023/02/20 01:43:52;;;;;;;19.57;17.53;;;5.50;99.90;;;;;;4197823;28;20410;-87
2023/02/20 01:46:27;;;;;;;17.75;15.88;;;5.50;99.90;;;;;;4188432;28;20644;-87
2023/02/20 01:48:47;;;;;;;20.63;17.13;;;5.50;99.90;;;;;;4189504;28;20047;-87
2023/02/20 01:51:07;;;;;;;19.15;17.35;;;5.50;99.90;;;;;;4181878;28;20048;-87
2023/02/20 01:53:29;;;;;;;18.17;16.50;;;5.40;99.90;;;;;;4192789;28;20056;-87
2023/02/20 01:55:52;;;;;;;17.33;15.80;;;5.40;99.90;;;;;;4196023;28;20043;-87
2023/02/20 01:58:24;;;;;;;16.38;14.00;;;5.40;99.90;;;;;;4180402;28;20052;-87
2023/02/20 02:00:46;;;;;;;16.05;14.80;;;5.40;99.90;;;;;;4193814;28;20046;-87
2023/02/20 02:03:12;;;;;;;17.05;15.38;;;5.40;99.90;;;;;;4195564;28;20056;-87
2023/02/20 02:05:33;;;;;;;15.35;14.10;;;5.30;99.90;;;;;;4188474;28;20140;-87
2023/02/20 02:07:55;;;;;;;14.05;12.98;;;5.20;99.90;;;;;;4197989;28;20091;-87
2023/02/20 02:10:28;;;;;;;16.77;15.57;;;5.10;99.90;;;;;;4193153;28;20091;-87
2023/02/20 02:12:51;;;;;;;15.43;14.13;;;5.20;99.90;;;;;;4194333;28;20040;-87
2023/02/20 02:15:17;;;;;;;14.88;13.93;;;5.10;99.90;;;;;;4191930;28;20128;-87
2023/02/20 02:17:59;;;;;;;16.15;15.05;;;5.00;99.90;;;;;;4192028;28;20047;-87
2023/02/20 02:20:21;;;;;;;14.48;13.57;;;5.00;99.90;;;;;;4184333;28;20048;-87
2023/02/20 02:23:11;;;;;;;16.35;14.98;;;4.90;99.90;;;;;;4192911;28;20059;-87
2023/02/20 02:26:04;;;;;;;15.02;13.75;;;4.90;99.90;;;;;;4182157;28;20055;-87
2023/02/20 02:29:24;;;;;;;14.38;13.40;;;4.90;99.90;;;;;;4190908;28;20425;-86
2023/02/20 02:32:30;;;;;;;14.90;13.77;;;4.90;99.90;;;;;;4126976;28;20467;-87
2023/02/20 02:34:55;;;;;;;14.75;13.45;;;5.00;99.90;;;;;;4142357;28;20053;-87
2023/02/20 02:37:42;;;;;;;14.15;13.02;;;5.00;99.90;;;;;;4126062;28;20224;-87
2023/02/20 02:40:27;;;;;;;13.65;12.63;;;5.00;99.90;;;;;;4125809;28;20061;-87
2023/02/20 02:43:05;;;;;;;13.05;12.45;;;5.10;99.90;;;;;;4149961;28;20049;-87
2023/02/20 02:45:36;;;;;;;13.75;12.85;;;5.10;99.90;;;;;;4148354;28;20122;-87
2023/02/20 02:48:13;;;;;;;14.43;13.25;;;5.10;99.90;;;;;;4146866;28;20106;-87
2023/02/20 02:50:35;;;;;;;14.50;13.40;;;5.10;99.90;;;;;;4132435;28;20293;-87
2023/02/20 02:52:57;;;;;;;15.02;13.75;;;5.10;99.90;;;;;;4149455;28;20103;-87
2023/02/20 02:55:28;;;;;;;15.98;14.85;;;5.10;99.90;;;;;;4129800;28;20093;-87
2023/02/20 02:57:49;;;;;;;15.90;14.57;;;5.10;99.90;;;;;;4127221;28;20111;-87
2023/02/20 03:00:16;;;;;;;15.55;14.40;;;5.10;99.90;;;;;;4132530;28;20089;-87
2023/02/20 03:02:58;;;;;;;17.58;15.88;;;5.10;99.90;;;;;;4175659;28;20048;-87
2023/02/20 03:05:22;;;;;;;16.02;14.55;;;5.00;99.90;;;;;;4192966;28;20091;-87
2023/02/20 03:07:44;;;;;;;15.98;14.77;;;4.90;99.90;;;;;;4179601;28;20051;-87
2023/02/20 03:10:08;;;;;;;16.27;15.07;;;4.90;99.90;;;;;;4180606;28;20052;-87
2023/02/20 03:12:29;;;;;;;15.90;14.30;;;4.80;99.90;;;;;;4194601;28;20490;-87
2023/02/20 03:18:12;;;;;;;14.32;13.38;;;4.80;99.90;;;;;;4185813;28;20123;-87
2023/02/20 03:20:31;;;;;;;16.17;14.90;;;4.80;99.90;;;;;;4199698;28;20051;-87
2023/02/20 03:23:02;;;;;;;14.25;13.52;;;4.80;99.90;;;;;;4186332;28;20287;-87
2023/02/20 03:25:41;;;;;;;16.33;15.05;;;4.80;99.90;;;;;;4190500;28;20053;-86
2023/02/20 03:28:09;;;;;;;14.23;13.40;;;4.90;99.90;;;;;;4195519;28;20072;-87
2023/02/20 03:30:40;;;;;;;14.88;13.68;;;4.90;99.90;;;;;;4190407;28;20048;-88
2023/02/20 03:43:54;;;;;;;15.63;14.45;;;5.10;99.90;;;;;;4194451;28;20051;-87
2023/02/20 03:46:21;;;;;;;14.82;13.75;;;5.10;99.90;;;;;;4204240;28;20085;-87
2023/02/20 03:48:47;;;;;;;13.77;12.98;;;5.10;99.90;;;;;;4197004;28;20060;-87
2023/02/20 03:51:10;;;;;;;13.23;11.88;;;5.10;99.90;;;;;;4192247;28;20044;-87
2023/02/20 03:53:30;;;;;;;;;;;5.10;99.90;;;;;;4189723;28;20067;-87
2023/02/20 03:55:52;;;;;;;13.50;12.60;;;5.10;99.90;;;;;;4181517;28;19924;-88
2023/02/20 03:58:15;;;;;;;13.33;12.63;;;5.10;99.90;;;;;;4192649;28;20062;-87
2023/02/20 04:00:41;;;;;;;12.88;12.02;;;5.10;99.90;;;;;;4189467;28;20187;-87
2023/02/20 04:03:14;;;;;;;15.65;14.55;;;5.10;99.90;;;;;;4188664;28;20055;-87
2023/02/20 04:05:37;;;;;;;;;;;5.10;99.90;;;;;;4196572;28;20262;-87
2023/02/20 04:08:06;;;;;;;14.30;13.48;;;5.10;99.90;;;;;;4195368;28;19923;-87
2023/02/20 04:10:30;;;;;;;14.30;13.50;;;5.10;99.90;;;;;;4194763;28;20407;-87
2023/02/20 04:12:51;;;;;;;13.18;12.38;;;5.10;99.90;;;;;;4199217;28;20050;-87
2023/02/20 04:15:12;;;;;;;12.93;11.95;;;5.10;99.90;;;;;;4192614;28;20067;-87
2023/02/20 04:17:50;;;;;;;14.45;13.38;;;5.10;99.90;;;;;;4197188;28;20087;-87
2023/02/20 04:20:11;;;;;;;15.35;14.02;;;5.00;99.90;;;;;;4196142;28;20440;-87
2023/02/20 04:22:37;;;;;;;12.52;11.65;;;5.00;99.90;;;;;;4189380;28;20083;-87
2023/02/20 04:25:01;;;;;;;14.13;12.88;;;5.00;99.90;;;;;;4192489;28;20082;-87
2023/02/20 04:27:22;;;;;;;15.30;13.77;;;5.10;99.90;;;;;;4194076;28;20083;-87
2023/02/20 04:29:42;;;;;;;16.98;15.43;;;5.10;99.90;;;;;;4196976;28;20124;-87
2023/02/20 04:32:02;;;;;;;17.35;15.60;;;5.10;99.90;;;;;;4198515;28;20071;-87
2023/02/20 04:34:22;;;;;;;16.40;15.05;;;5.10;99.90;;;;;;4189604;28;20231;-87
2023/02/20 04:36:42;;;;;;;19.80;18.20;;;5.10;99.90;;;;;;4186100;28;20052;-87
2023/02/20 04:39:02;;;;;;;17.85;16.33;;;4.90;99.90;;;;;;4188590;28;20076;-87
2023/02/20 04:41:25;;;;;;;19.00;17.55;;;4.70;99.90;;;;;;4194985;28;20119;-87
2023/02/20 04:43:46;;;;;;;17.77;16.00;;;4.70;99.90;;;;;;4188997;28;20047;-87
2023/02/20 04:46:05;;;;;;;16.52;15.20;;;4.60;99.90;;;;;;4184721;28;20106;-87
2023/02/20 04:48:26;;;;;;;14.10;13.25;;;4.50;99.90;;;;;;4193382;28;20255;-87
2023/02/20 04:50:45;;;;;;;13.90;13.10;;;4.50;99.90;;;;;;4196150;28;20101;-87
2023/02/20 04:53:06;;;;;;;13.85;13.05;;;4.50;99.90;;;;;;4188329;28;20250;-87
2023/02/20 04:55:27;;;;;;;15.88;14.60;;;4.60;99.90;;;;;;4182181;28;20060;-87
2023/02/20 04:57:48;;;;;;;15.50;14.57;;;4.60;99.90;;;;;;4194725;28;20296;-87
2023/02/20 05:00:09;;;;;;;14.25;13.43;;;4.70;99.90;;;;;;4191252;28;20110;-87
2023/02/20 05:02:29;;;;;;;15.82;14.55;;;4.70;99.90;;;;;;4196115;28;20065;-87
2023/02/20 05:04:49;;;;;;;15.82;14.63;;;4.70;99.90;;;;;;4188635;28;20052;-87
2023/02/20 05:07:10;;;;;;;14.85;13.77;;;4.60;99.90;;;;;;4194854;28;20051;-87
2023/02/20 05:09:31;;;;;;;15.38;14.30;;;4.60;99.90;;;;;;4200437;28;20128;-87
2023/02/20 05:11:51;;;;;;;14.57;13.35;;;4.50;99.90;;;;;;4180971;28;20327;-87
2023/02/20 05:14:11;;;;;;;14.60;13.63;;;4.50;99.90;;;;;;4181537;28;20055;-87
2023/02/20 05:16:31;;;;;;;16.92;15.63;;;4.60;99.90;;;;;;4194232;28;20251;-87
2023/02/20 05:18:51;;;;;;;15.80;14.80;;;4.50;99.90;;;;;;4193032;28;20051;-87
2023/02/20 05:23:53;;;;;;;15.80;14.63;;;4.40;99.90;;;;;;4193954;28;20121;-87
2023/02/20 05:26:17;;;;;;;15.68;14.60;;;4.30;99.90;;;;;;4191514;28;20063;-87
2023/02/20 05:28:38;;;;;;;14.27;13.25;;;4.30;99.90;;;;;;4192757;28;20051;-87
2023/02/20 05:30:59;;;;;;;17.88;16.27;;;4.20;99.90;;;;;;4195373;28;20051;-87
2023/02/20 05:33:20;;;;;;;21.17;19.27;;;4.10;99.90;;;;;;4197954;28;20086;-87
2023/02/20 05:35:40;;;;;;;19.63;17.83;;;3.90;99.90;;;;;;4195217;28;20413;-87
2023/02/20 05:38:01;;;;;;;20.23;15.88;;;3.80;99.90;;;;;;4179141;28;20055;-87
2023/02/20 05:40:21;;;;;;;18.60;17.15;;;3.80;99.90;;;;;;4189868;28;20075;-87
2023/02/20 05:42:42;;;;;;;19.95;18.33;;;3.70;99.90;;;;;;4187920;28;20167;-87
2023/02/20 05:45:03;;;;;;;19.20;17.33;;;3.80;99.90;;;;;;4189571;28;20087;-87
2023/02/20 05:47:24;;;;;;;21.48;19.38;;;3.80;99.90;;;;;;4183451;28;20121;-87
2023/02/20 05:49:46;;;;;;;17.30;15.85;;;3.80;99.90;;;;;;4196879;28;20039;-87
2023/02/20 05:52:10;;;;;;;17.10;15.88;;;3.80;99.90;;;;;;4188126;28;20044;-87
2023/02/20 05:54:30;;;;;;;16.17;15.07;;;3.90;99.90;;;;;;4192001;28;20044;-87
2023/02/20 05:56:51;;;;;;;19.40;18.05;;;3.90;99.90;;;;;;4197861;28;20044;-87
2023/02/20 05:59:13;;;;;;;18.45;16.77;;;3.80;99.90;;;;;;4192905;28;20071;-87
2023/02/20 06:01:34;;;;;;;31.37;21.57;;;3.70;99.90;;;;;;4190018;28;20090;-86
2023/02/20 06:03:54;;;;;;;33.55;25.67;;;3.70;99.90;;;;;;4190043;28;20274;-87
2023/02/20 06:06:16;;;;;;;23.50;21.02;;;3.70;99.90;;;;;;4196530;28;20082;-87
2023/02/20 06:08:36;;;;;;;21.45;19.38;;;3.60;99.90;;;;;;4195491;28;20283;-87
2023/02/20 06:10:56;;;;;;;21.10;19.08;;;3.60;99.90;;;;;;4196071;28;20043;-87
2023/02/20 06:13:16;;;;;;;21.15;19.20;;;3.50;99.90;;;;;;4193844;28;20292;-87
2023/02/20 06:15:35;;;;;;;25.02;22.15;;;3.60;99.90;;;;;;4204440;28;20067;-87
2023/02/20 06:17:55;;;;;;;21.83;17.85;;;3.60;99.90;;;;;;4188377;28;20048;-87
2023/02/20 06:20:16;;;;;;;19.23;17.65;;;3.60;99.90;;;;;;4190342;28;20087;-87
2023/02/20 06:22:36;;;;;;;18.55;16.98;;;3.60;99.90;;;;;;4194686;28;20147;-87
2023/02/20 06:24:56;;;;;;;20.63;18.60;;;3.60;99.90;;;;;;4195822;28;20040;-85
2023/02/20 06:27:16;;;;;;;20.40;18.38;;;3.60;99.90;;;;;;4196831;28;20094;-87
2023/02/20 06:29:36;;;;;;;17.75;16.45;;;3.60;99.90;;;;;;4197869;28;20067;-87
2023/02/20 06:31:58;;;;;;;19.02;17.40;;;3.70;99.90;;;;;;4189446;28;20302;-87
2023/02/20 06:34:18;;;;;;;20.90;19.02;;;3.80;99.90;;;;;;4198322;28;20044;-87
2023/02/20 06:36:40;;;;;;;18.42;16.65;;;3.80;99.90;;;;;;4196110;28;20075;-87
2023/02/20 06:39:01;;;;;;;18.67;17.20;;;3.80;99.90;;;;;;4197446;28;20052;-87
2023/02/20 06:41:21;;;;;;;21.90;19.73;;;3.90;99.90;;;;;;4186027;28;20282;-87
2023/02/20 06:43:41;;;;;;;25.90;22.23;;;3.80;99.90;;;;;;4202166;28;20057;-87
2023/02/20 06:46:02;;;;;;;31.73;28.38;;;3.70;99.90;;;;;;4191210;28;20067;-87
2023/02/20 06:48:22;;;;;;;29.45;26.33;;;3.70;99.90;;;;;;4193121;28;20048;-87
2023/02/20 06:50:43;;;;;;;28.83;25.88;;;3.70;99.90;;;;;;4194756;28;20052;-86
2023/02/20 06:53:03;;;;;;;30.98;27.63;;;3.70;99.90;;;;;;4190106;28;20052;-86
2023/02/20 06:55:23;;;;;;;31.58;28.48;;;3.70;99.90;;;;;;4196303;28;20362;-86
2023/02/20 06:57:44;;;;;;;30.75;27.15;;;3.70;99.90;;;;;;4200053;28;20068;-86
2023/02/20 07:00:05;;;;;;;26.27;23.85;;;3.80;99.90;;;;;;4192424;28;20071;-86
2023/02/20 07:02:25;;;;;;;28.05;25.17;;;3.80;99.90;;;;;;4194217;28;20236;-85
2023/02/20 07:04:49;;;;;;;55.03;41.53;;;3.80;99.90;;;;;;4197676;28;20243;-86
2023/02/20 07:07:11;;;;;;;32.20;28.00;;;3.90;99.90;;;;;;4192334;28;20047;-86
2023/02/20 07:09:31;;;;;;;45.28;36.88;;;3.90;99.90;;;;;;4185272;28;20430;-86
2023/02/20 07:11:54;;;;;;;34.90;28.52;;;4.00;99.90;;;;;;4193849;28;20051;-85
2023/02/20 07:14:13;;;;;;;39.35;33.60;;;3.90;99.90;;;;;;4200625;28;20086;-86
2023/02/20 07:16:33;;;;;;;26.40;23.92;;;3.80;99.90;;;;;;4183863;28;20045;-85
2023/02/20 07:18:53;;;;;;;29.83;27.00;;;3.80;99.90;;;;;;4193517;28;20059;-86
2023/02/20 07:21:13;;;;;;;45.17;40.63;;;3.80;99.90;;;;;;4199765;28;20163;-85
2023/02/20 07:23:33;;;;;;;22.33;20.23;;;3.90;99.90;;;;;;4194866;28;20112;-86
2023/02/20 07:25:53;;;;;;;16.80;15.60;;;4.00;99.90;;;;;;4195243;28;20083;-85
2023/02/20 07:28:13;;;;;;;15.35;14.35;;;4.00;99.90;;;;;;4188793;28;20076;-86
2023/02/20 07:30:33;;;;;;;16.90;15.55;;;4.10;99.90;;;;;;4194857;28;20051;-86
2023/02/20 07:32:54;;;;;;;15.13;14.05;;;4.20;99.90;;;;;;4196287;28;20091;-86
2023/02/20 07:35:14;;;;;;;15.88;14.75;;;4.30;99.90;;;;;;4185691;28;20358;-86
2023/02/20 07:37:35;;;;;;;14.50;13.45;;;4.40;99.90;;;;;;4193207;28;20082;-86
2023/02/20 07:39:55;;;;;;;14.50;13.50;;;4.60;99.90;;;;;;4193584;28;20055;-86
2023/02/20 07:42:16;;;;;;;25.15;18.25;;;4.70;99.90;;;;;;4197964;28;20052;-86
2023/02/20 07:44:37;;;;;;;19.08;17.52;;;4.80;99.90;;;;;;4198396;28;20044;-86
2023/02/20 07:46:58;;;;;;;29.38;26.77;;;4.90;99.90;;;;;;4198284;28;20062;-86
2023/02/20 07:49:17;;;;;;;22.10;20.00;;;5.00;99.90;;;;;;4202365;28;20101;-86
2023/02/20 07:51:38;;;;;;;17.17;15.65;;;5.20;99.90;;;;;;4196089;28;20248;-86
2023/02/20 07:53:58;;;;;;;16.48;15.38;;;5.20;99.90;;;;;;4197295;28;20102;-86
2023/02/20 07:56:19;;;;;;;14.23;13.27;;;5.30;99.90;;;;;;4197165;28;20235;-86
2023/02/20 07:58:39;;;;;;;16.70;15.32;;;5.40;99.90;;;;;;4187698;28;20055;-85
2023/02/20 08:01:00;;;;;;;28.77;23.17;;;5.50;99.90;;;;;;4190720;28;20051;-86
2023/02/20 08:03:20;;;;;;;20.80;18.92;;;5.60;99.90;;;;;;4193548;28;20052;-85
2023/02/20 08:05:40;;;;;;;24.80;21.88;;;5.70;99.90;;;;;;4186770;28;20043;-86
2023/02/20 08:08:08;;;;;;;46.75;36.55;;;5.90;99.90;;;;;;4194484;28;20051;-85
2023/02/20 08:10:29;;;;;;;29.73;26.45;;;6.00;99.90;;;;;;4197899;28;20052;-86
2023/02/20 08:12:50;;;;;;;30.33;26.45;;;6.00;99.90;;;;;;4200372;28;20091;-86
2023/02/20 08:15:11;;;;;;;26.25;23.45;;;6.10;99.90;;;;;;4197134;28;20089;-86
2023/02/20 08:17:32;;;;;;;18.83;17.30;;;6.20;99.90;;;;;;4196878;28;20048;-86
2023/02/20 08:20:07;;;;;;;15.07;14.10;;;6.30;99.90;;;;;;4185340;28;20267;-86
2023/02/20 08:22:28;;;;;;;12.88;11.70;;;6.50;99.90;;;;;;4195532;28;20060;-86
2023/02/20 08:25:02;;;;;;;11.40;10.65;;;6.60;99.90;;;;;;4195493;28;20238;-86
2023/02/20 08:27:23;;;;;;;12.82;11.70;;;6.70;99.90;;;;;;4200069;28;20435;-86
2023/02/20 08:29:44;;;;;;;17.35;16.00;;;6.70;99.90;;;;;;4188270;28;20079;-86
2023/02/20 08:32:05;;;;;;;13.77;12.83;;;6.80;99.90;;;;;;4195209;28;20052;-86
2023/02/20 08:34:25;;;;;;;17.70;14.98;;;6.90;99.90;;;;;;4195953;28;20079;-86
2023/02/20 08:36:45;;;;;;;13.07;12.10;;;7.00;99.90;;;;;;4193416;28;20048;-86
2023/02/20 08:39:05;;;;;;;12.70;11.95;;;7.00;99.90;;;;;;4191882;28;20048;-86
2023/02/20 08:41:25;;;;;;;14.70;13.88;;;7.20;99.90;;;;;;4193442;28;20118;-85
2023/02/20 08:43:45;;;;;;;12.93;12.15;;;7.30;99.90;;;;;;4190622;28;20091;-85
2023/02/20 08:46:06;;;;;;;16.13;14.60;;;7.50;99.90;;;;;;4179185;28;20420;-86
2023/02/20 08:48:26;;;;;;;12.40;11.77;;;7.60;99.90;;;;;;4194836;28;20036;-85
2023/02/20 08:50:46;;;;;;;13.55;12.40;;;7.80;99.90;;;;;;4191979;28;20167;-85
2023/02/20 08:53:07;;;;;;;11.70;10.70;;;7.90;99.90;;;;;;4193038;28;20071;-86
2023/02/20 08:55:27;;;;;;;16.58;15.13;;;7.90;99.90;;;;;;4187395;28;20048;-86
2023/02/20 08:57:47;;;;;;;14.77;13.25;;;8.10;99.90;;;;;;4177290;28;20123;-86
2023/02/20 09:00:08;;;;;;;18.95;17.25;;;8.30;99.90;;;;;;4190376;28;20048;-86
2023/02/20 09:02:28;;;;;;;15.52;13.93;;;8.40;99.90;;;;;;4193469;28;20048;-86
2023/02/20 09:04:49;;;;;;;14.50;13.23;;;8.70;99.90;;;;;;4190885;28;20108;-86
2023/02/20 09:07:11;;;;;;;16.15;13.60;;;8.80;99.90;;;;;;4193957;28;20059;-86
2023/02/20 09:09:31;;;;;;;12.65;11.85;;;8.90;99.90;;;;;;4190301;28;20410;-87
2023/02/20 09:11:52;;;;;;;12.77;12.23;;;9.00;99.90;;;;;;4189915;28;20150;-88
2023/02/20 09:14:13;;;;;;;14.27;13.18;;;9.20;99.90;;;;;;4191702;28;20050;-87
2023/02/20 09:16:34;;;;;;;13.82;12.60;;;9.30;99.90;;;;;;4191383;28;20052;-85
2023/02/20 09:18:54;;;;;;;13.95;12.60;;;9.30;99.90;;;;;;4193039;28;20051;-85
2023/02/20 09:21:18;;;;;;;12.63;11.87;;;9.40;99.90;;;;;;4185160;28;20087;-84
2023/02/20 09:23:38;;;;;;;10.35;9.82;;;9.50;99.90;;;;;;4189867;28;20617;-84
2023/02/20 09:26:00;;;;;;;14.65;13.43;;;9.60;99.90;;;;;;4199324;28;20374;-85
2023/02/20 09:28:20;;;;;;;10.10;9.25;;;9.80;99.90;;;;;;4190166;28;20394;-82
2023/02/20 09:30:39;;;;;;;12.88;11.88;;;9.80;99.90;;;;;;4197062;28;20235;-83
2023/02/20 09:32:59;;;;;;;9.20;8.68;;;10.20;99.90;;;;;;4192667;28;20090;-82
2023/02/20 09:35:23;;;;;;;8.20;7.80;;;10.20;99.90;;;;;;4183892;28;20087;-83
2023/02/20 09:37:43;;;;;;;8.23;7.82;;;10.20;99.90;;;;;;4186479;28;20052;-83
2023/02/20 09:40:03;;;;;;;8.80;8.32;;;10.60;99.90;;;;;;4189899;28;20044;-82
2023/02/20 09:42:26;;;;;;;9.13;7.85;;;10.60;99.90;;;;;;4187516;28;20371;-83
2023/02/20 09:44:49;;;;;;;7.75;7.32;;;10.70;99.90;;;;;;4187807;28;20294;-83
2023/02/20 09:47:33;;;;;;;8.25;7.32;;;10.70;99.90;;;;;;4197218;28;20059;-83
2023/02/20 09:49:58;;;;;;;8.15;6.80;;;10.80;99.90;;;;;;4192458;28;20040;-82
2023/02/20 09:52:22;;;;;;;7.32;7.03;;;10.90;99.90;;;;;;4192711;28;20059;-83
2023/02/20 09:55:06;;;;;;;6.57;6.28;;;11.00;99.90;;;;;;4182364;28;20035;-83
2023/02/20 09:57:29;;;;;;;8.27;7.75;;;11.10;99.90;;;;;;4189796;28;20076;-83
2023/02/20 09:59:51;;;;;;;4.82;4.72;;;11.20;99.90;;;;;;4186999;28;20047;-83
2023/02/20 10:02:34;;;;;;;8.00;5.50;;;11.30;99.90;;;;;;4190179;28;20056;-83
2023/02/20 10:05:03;;;;;;;4.93;4.43;;;11.40;99.90;;;;;;4183037;28;20045;-83
2023/02/20 10:07:32;;;;;;;4.80;4.40;;;11.50;99.90;;;;;;4198604;28;20048;-83
2023/02/20 10:09:53;;;;;;;5.65;5.25;;;11.70;99.90;;;;;;4189452;28;20071;-83
2023/02/20 10:12:47;;;;;;;5.10;4.90;;;12.20;99.90;;;;;;4188609;28;20112;-82
2023/02/20 10:15:22;;;;;;;5.32;3.83;;;12.50;99.90;;;;;;4196348;28;20051;-83
2023/02/20 10:18:31;;;;;;;3.55;3.35;;;12.60;99.90;;;;;;4193631;28;20397;-83
2023/02/20 10:21:00;;;;;;;4.32;3.90;;;13.00;99.90;;;;;;4130870;28;20094;-83
2023/02/20 10:23:37;;;;;;;4.63;3.80;;;13.20;99.90;;;;;;4148421;28;20085;-83
2023/02/20 10:26:03;;;;;;;2.80;2.70;;;13.40;99.90;;;;;;4143494;28;20085;-83
2023/02/20 10:28:24;;;;;;;2.92;2.72;;;13.60;99.90;;;;;;4141575;28;20073;-84
2023/02/20 10:30:56;;;;;;;3.10;2.83;;;13.60;99.90;;;;;;4131537;28;20057;-84
2023/02/20 10:33:41;;;;;;;5.73;3.53;;;13.90;99.90;;;;;;4139890;28;20088;-84
2023/02/20 10:36:17;;;;;;;7.07;2.65;;;14.00;99.90;;;;;;4140389;28;20400;-84
2023/02/20 10:39:02;;;;;;;3.58;3.30;;;14.20;99.90;;;;;;4141361;28;20050;-84
2023/02/20 10:41:50;;;;;;;6.50;3.85;;;14.60;99.90;;;;;;4144112;28;20049;-85
2023/02/20 10:44:26;;;;;;;3.20;3.10;;;14.40;99.90;;;;;;4131511;28;20062;-85
2023/02/20 10:47:36;;;;;;;4.57;4.40;;;14.70;99.90;;;;;;4128892;28;20081;-84
2023/02/20 10:50:04;;;;;;;3.10;2.90;;;14.90;99.90;;;;;;4066444;29;20122;-84
2023/02/20 10:52:56;;;;;;;3.47;3.38;;;14.80;99.90;;;;;;4073366;29;20067;-84
2023/02/20 10:55:28;;;;;;;3.58;3.25;;;14.70;99.90;;;;;;4048238;29;20150;-84
2023/02/20 10:57:57;;;;;;;3.35;3.20;;;14.20;99.90;;;;;;4112286;28;20054;-84
2023/02/20 11:00:26;;;;;;;5.13;4.38;;;14.60;99.90;;;;;;4119611;28;20383;-84
2023/02/20 11:02:56;;;;;;;3.33;3.17;;;14.60;99.90;;;;;;4114296;28;20331;-84
2023/02/20 11:05:21;;;;;;;3.70;3.47;;;14.70;99.90;;;;;;4119712;28;20229;-84
2023/02/20 11:07:42;;;;;;;3.30;2.97;;;14.70;99.90;;;;;;4123304;28;20106;-84
2023/02/20 11:10:03;;;;;;;3.80;3.13;;;14.60;99.90;;;;;;4107905;28;20055;-84
2023/02/20 11:12:30;;;;;;;3.67;3.58;;;14.70;99.90;;;;;;4126891;28;20073;-84
2023/02/20 11:14:54;;;;;;;4.78;4.32;;;14.50;99.90;;;;;;4121625;28;20049;-84
2023/02/20 11:17:19;;;;;;;3.58;3.38;;;14.50;99.90;;;;;;4129133;28;20049;-84
2023/02/20 11:19:45;;;;;;;4.75;4.38;;;15.20;99.90;;;;;;4128745;28;20134;-84
2023/02/20 11:22:06;;;;;;;3.92;3.20;;;15.10;99.90;;;;;;4101941;28;20062;-84
2023/02/20 11:24:30;;;;;;;2.88;2.67;;;15.00;99.90;;;;;;4194171;28;20048;-84
2023/02/20 11:27:14;;;;;;;2.58;2.47;;;15.00;99.90;;;;;;4183367;28;20056;-84
2023/02/20 11:30:00;;;;;;;3.20;3.10;;;14.90;99.90;;;;;;4194448;28;20090;-84
2023/02/20 11:32:28;;;;;;;6.78;4.25;;;14.90;99.90;;;;;;4194841;28;20235;-84
2023/02/20 11:35:16;;;;;;;3.53;3.40;;;15.10;99.90;;;;;;4193802;28;20137;-84
2023/02/20 11:37:36;;;;;;;2.95;2.75;;;14.90;99.90;;;;;;4195209;28;20071;-84
2023/02/20 11:40:33;;;;;;;3.33;3.22;;;15.20;99.90;;;;;;4204878;28;20394;-85
2023/02/20 11:42:54;;;;;;;3.42;3.20;;;15.10;99.90;;;;;;4195884;28;20363;-85
2023/02/20 11:45:16;;;;;;;4.65;4.35;;;15.50;99.90;;;;;;4197927;28;20110;-84
2023/02/20 11:47:37;;;;;;;3.03;2.90;;;15.60;99.90;;;;;;4197576;28;20048;-84
2023/02/20 11:50:18;;;;;;;3.35;3.15;;;15.80;99.90;;;;;;4194641;28;20040;-84
2023/02/20 11:53:01;;;;;;;;;;;16.00;99.90;;;;;;4194072;28;20081;-85
2023/02/20 11:55:24;;;;;;;2.70;2.50;;;16.10;99.90;;;;;;4177490;28;19923;-84
2023/02/20 11:57:47;;;;;;;2.80;2.60;;;15.90;99.90;;;;;;4198271;28;20044;-85
2023/02/20 12:00:21;;;;;;;2.72;2.53;;;15.50;99.90;;;;;;4194777;28;20390;-85
2023/02/20 12:03:21;;;;;;;2.72;2.63;;;15.70;99.90;;;;;;4196030;28;20040;-85
2023/02/20 12:05:45;;;;;;;3.00;2.33;;;16.00;99.90;;;;;;4193253;28;20083;-84
2023/02/20 12:08:24;;;;;;;2.72;2.58;;;15.60;99.90;;;;;;4196729;28;20048;-84
2023/02/20 12:10:47;;;;;;;2.08;1.98;;;15.40;99.90;;;;;;4190246;28;20117;-84
2023/02/20 12:13:16;;;;;;;3.47;1.98;;;15.60;99.90;;;;;;4187096;28;20056;-84
2023/02/20 12:15:41;;;;;;;2.03;1.92;;;16.20;99.90;;;;;;4184575;28;20048;-84
2023/02/20 12:18:27;;;;;;;3.15;2.95;;;15.70;99.90;;;;;;4178486;28;20723;-84
2023/02/20 12:25:03;;;;;;;2.45;2.25;;;15.80;99.90;;;;;;4134406;28;20146;-84
2023/02/20 12:27:44;;;;;;;6.13;2.97;;;16.20;99.90;;;;;;4078019;29;20430;-85
2023/02/20 12:30:38;;;;;;;3.92;2.45;;;16.00;99.90;;;;;;4091872;29;20051;-84
2023/02/20 12:33:10;;;;;;;2.83;2.63;;;15.80;99.90;;;;;;4089989;29;20419;-84
2023/02/20 12:35:35;;;;;;;2.38;2.15;;;16.20;99.90;;;;;;4091519;29;20165;-84
2023/02/20 12:38:15;;;;;;;2.60;2.50;;;16.20;99.90;;;;;;4090058;29;20251;-84
2023/02/20 12:41:15;;;;;;;2.30;2.10;;;16.60;99.90;;;;;;4077359;29;20091;-84
2023/02/20 12:44:03;;;;;;;5.18;3.08;;;16.60;99.20;;;;;;4089858;29;20082;-83
2023/02/20 12:47:22;;;;;;;3.08;2.97;;;16.20;99.80;;;;;;4077813;29;20054;-84
2023/02/20 12:49:49;;;;;;;3.08;2.88;;;16.30;99.80;;;;;;4049156;29;20052;-83
2023/02/20 12:52:43;;;;;;;3.00;1.88;;;16.20;98.80;;;;;;4048485;29;20118;-83